Portada
METAR-TAF:

METAR-TAF

Aeroports :

Båtsfjord, Noruega

latitud: 70-38N, longitud: 029-44E, altitud: 10 m

Observació

L'informe es va fer fa 6 hores i 57 minuts, a les 20:50 UTC
Vent 12 kt del Sud/Sud-Est
Temperatura 16°C
Humitat 48%
Pressió 1015 hPa
Visibilitat 10 km o més
sense núvols per sota de 1500 mi sense presència de cumulonimbus.

METAR: ENBS 212050Z 15012KT CAVOK 16/05 Q1015

Hora: 05:47 (03:47 UTC)


TAF: manca

Observacions i pronòstics meteorològics de més de 4000 aeroports (METAR i TAF).

Les estacions disponibles són els punts grocs i vermells al mapa.

Posi el ratolí al punt desitjat per veure el nom de l'estació.

Feu clic per veure les observacions i els pronòstics meteorològics.

Per canviar el mapa: feu clic els botons verds amb una creu de color negre per apropar; al botó verd amb un guió per allunyar la imatge; o en les fletxes verdes per a mapes adjacents.


METAR-TAF: